sensor_id;sensor_type;location;lat;lon;timestamp;P1;durP1;ratioP1;P2;durP2;ratioP2
23432;SDS011;41331;45.412;10.992;2023-06-14T00:00:07;6.10;;;3.72;;
23432;SDS011;41331;45.412;10.992;2023-06-14T00:02:35;8.60;;;4.20;;
23432;SDS011;41331;45.412;10.992;2023-06-14T00:05:05;6.40;;;4.13;;
23432;SDS011;41331;45.412;10.992;2023-06-14T00:07:37;7.88;;;4.13;;
23432;SDS011;41331;45.412;10.992;2023-06-14T00:10:10;5.45;;;3.88;;
23432;SDS011;41331;45.412;10.992;2023-06-14T00:12:41;6.82;;;4.07;;
23432;SDS011;41331;45.412;10.992;2023-06-14T00:15:10;6.95;;;4.63;;
23432;SDS011;41331;45.412;10.992;2023-06-14T00:17:40;9.43;;;4.45;;
23432;SDS011;41331;45.412;10.992;2023-06-14T00:20:08;7.68;;;4.25;;
23432;SDS011;41331;45.412;10.992;2023-06-14T00:22:38;6.07;;;4.25;;
23432;SDS011;41331;45.412;10.992;2023-06-14T00:25:06;7.13;;;4.72;;
23432;SDS011;41331;45.412;10.992;2023-06-14T00:27:55;8.20;;;5.25;;
23432;SDS011;41331;45.412;10.992;2023-06-14T00:30:25;7.47;;;4.95;;
23432;SDS011;41331;45.412;10.992;2023-06-14T00:33:01;7.32;;;5.22;;
23432;SDS011;41331;45.412;10.992;2023-06-14T00:35:30;9.63;;;5.68;;
23432;SDS011;41331;45.412;10.992;2023-06-14T00:37:57;8.30;;;5.72;;
23432;SDS011;41331;45.412;10.992;2023-06-14T00:40:29;11.63;;;6.40;;
23432;SDS011;41331;45.412;10.992;2023-06-14T00:43:03;9.73;;;5.55;;
23432;SDS011;41331;45.412;10.992;2023-06-14T00:45:33;13.25;;;7.28;;
23432;SDS011;41331;45.412;10.992;2023-06-14T00:48:04;10.95;;;5.80;;
23432;SDS011;41331;45.412;10.992;2023-06-14T00:50:40;9.02;;;5.90;;
23432;SDS011;41331;45.412;10.992;2023-06-14T00:53:14;10.68;;;5.93;;
23432;SDS011;41331;45.412;10.992;2023-06-14T00:55:47;10.38;;;6.75;;
23432;SDS011;41331;45.412;10.992;2023-06-14T00:58:18;11.05;;;6.75;;
23432;SDS011;41331;45.412;10.992;2023-06-14T01:00:51;9.90;;;6.70;;
23432;SDS011;41331;45.412;10.992;2023-06-14T01:03:19;10.25;;;6.35;;
23432;SDS011;41331;45.412;10.992;2023-06-14T01:05:53;8.32;;;5.90;;
23432;SDS011;41331;45.412;10.992;2023-06-14T01:09:01;8.70;;;6.18;;
23432;SDS011;41331;45.412;10.992;2023-06-14T01:11:51;14.73;;;6.07;;
23432;SDS011;41331;45.412;10.992;2023-06-14T01:14:27;8.88;;;5.93;;
23432;SDS011;41331;45.412;10.992;2023-06-14T01:16:59;8.65;;;5.78;;
23432;SDS011;41331;45.412;10.992;2023-06-14T01:19:29;7.68;;;5.40;;
23432;SDS011;41331;45.412;10.992;2023-06-14T01:22:02;10.38;;;5.43;;
23432;SDS011;41331;45.412;10.992;2023-06-14T01:24:35;10.50;;;6.07;;
23432;SDS011;41331;45.412;10.992;2023-06-14T01:27:11;8.05;;;5.85;;
23432;SDS011;41331;45.412;10.992;2023-06-14T01:29:40;9.73;;;6.22;;
23432;SDS011;41331;45.412;10.992;2023-06-14T01:32:15;10.50;;;6.32;;
23432;SDS011;41331;45.412;10.992;2023-06-14T01:34:46;11.10;;;6.13;;
23432;SDS011;41331;45.412;10.992;2023-06-14T01:37:15;9.27;;;6.28;;
23432;SDS011;41331;45.412;10.992;2023-06-14T01:39:45;9.43;;;6.63;;
23432;SDS011;41331;45.412;10.992;2023-06-14T01:42:18;11.27;;;7.05;;
23432;SDS011;41331;45.412;10.992;2023-06-14T01:44:48;11.10;;;7.13;;
23432;SDS011;41331;45.412;10.992;2023-06-14T01:47:17;10.65;;;7.35;;
23432;SDS011;41331;45.412;10.992;2023-06-14T01:49:46;12.27;;;7.15;;
23432;SDS011;41331;45.412;10.992;2023-06-14T01:52:14;11.27;;;7.82;;
23432;SDS011;41331;45.412;10.992;2023-06-14T01:54:48;11.25;;;8.48;;
23432;SDS011;41331;45.412;10.992;2023-06-14T01:57:19;11.43;;;8.50;;
23432;SDS011;41331;45.412;10.992;2023-06-14T01:59:48;11.88;;;8.10;;
23432;SDS011;41331;45.412;10.992;2023-06-14T02:02:18;11.05;;;8.48;;
23432;SDS011;41331;45.412;10.992;2023-06-14T02:04:46;14.43;;;8.48;;
23432;SDS011;41331;45.412;10.992;2023-06-14T02:07:16;16.88;;;9.50;;
23432;SDS011;41331;45.412;10.992;2023-06-14T02:09:43;12.82;;;8.27;;
23432;SDS011;41331;45.412;10.992;2023-06-14T02:12:10;11.30;;;8.90;;
23432;SDS011;41331;45.412;10.992;2023-06-14T02:14:38;12.88;;;8.93;;
23432;SDS011;41331;45.412;10.992;2023-06-14T02:17:06;11.82;;;8.77;;
23432;SDS011;41331;45.412;10.992;2023-06-14T02:19:33;12.13;;;8.48;;
23432;SDS011;41331;45.412;10.992;2023-06-14T02:22:03;14.82;;;9.25;;
23432;SDS011;41331;45.412;10.992;2023-06-14T02:24:30;12.75;;;8.90;;
23432;SDS011;41331;45.412;10.992;2023-06-14T02:26:58;11.48;;;8.80;;
23432;SDS011;41331;45.412;10.992;2023-06-14T02:29:25;11.20;;;8.88;;
23432;SDS011;41331;45.412;10.992;2023-06-14T02:31:53;12.70;;;8.50;;
23432;SDS011;41331;45.412;10.992;2023-06-14T02:34:20;12.43;;;8.60;;
23432;SDS011;41331;45.412;10.992;2023-06-14T02:36:51;12.47;;;8.83;;
23432;SDS011;41331;45.412;10.992;2023-06-14T02:39:19;13.85;;;9.75;;
23432;SDS011;41331;45.412;10.992;2023-06-14T02:41:47;11.75;;;9.13;;
23432;SDS011;41331;45.412;10.992;2023-06-14T02:44:15;13.18;;;9.57;;
23432;SDS011;41331;45.412;10.992;2023-06-14T02:46:46;14.73;;;9.65;;
23432;SDS011;41331;45.412;10.992;2023-06-14T02:49:14;16.50;;;9.32;;
23432;SDS011;41331;45.412;10.992;2023-06-14T02:51:41;16.83;;;9.68;;
23432;SDS011;41331;45.412;10.992;2023-06-14T02:54:09;14.18;;;10.00;;
23432;SDS011;41331;45.412;10.992;2023-06-14T02:56:38;13.10;;;9.25;;
23432;SDS011;41331;45.412;10.992;2023-06-14T02:59:06;13.38;;;9.40;;
23432;SDS011;41331;45.412;10.992;2023-06-14T03:01:34;16.52;;;9.77;;
23432;SDS011;41331;45.412;10.992;2023-06-14T03:04:07;14.27;;;8.63;;
23432;SDS011;41331;45.412;10.992;2023-06-14T03:06:38;13.05;;;9.15;;
23432;SDS011;41331;45.412;10.992;2023-06-14T03:09:08;11.73;;;8.88;;
23432;SDS011;41331;45.412;10.992;2023-06-14T03:11:40;13.18;;;8.60;;
23432;SDS011;41331;45.412;10.992;2023-06-14T03:14:08;11.07;;;7.72;;
23432;SDS011;41331;45.412;10.992;2023-06-14T03:16:37;11.93;;;6.80;;
23432;SDS011;41331;45.412;10.992;2023-06-14T03:19:05;10.18;;;6.57;;
23432;SDS011;41331;45.412;10.992;2023-06-14T03:21:34;8.93;;;6.38;;
23432;SDS011;41331;45.412;10.992;2023-06-14T03:24:03;8.35;;;5.47;;
23432;SDS011;41331;45.412;10.992;2023-06-14T03:26:33;8.40;;;5.43;;
23432;SDS011;41331;45.412;10.992;2023-06-14T03:29:04;7.50;;;5.35;;
23432;SDS011;41331;45.412;10.992;2023-06-14T03:31:34;9.32;;;4.97;;
23432;SDS011;41331;45.412;10.992;2023-06-14T03:34:05;8.27;;;5.15;;
23432;SDS011;41331;45.412;10.992;2023-06-14T03:36:33;8.30;;;5.10;;
23432;SDS011;41331;45.412;10.992;2023-06-14T03:39:02;7.63;;;4.85;;
23432;SDS011;41331;45.412;10.992;2023-06-14T03:41:29;7.07;;;5.00;;
23432;SDS011;41331;45.412;10.992;2023-06-14T03:43:57;12.43;;;5.47;;
23432;SDS011;41331;45.412;10.992;2023-06-14T03:46:26;9.27;;;4.90;;
23432;SDS011;41331;45.412;10.992;2023-06-14T03:48:54;14.35;;;5.57;;
23432;SDS011;41331;45.412;10.992;2023-06-14T03:51:23;9.57;;;5.57;;
23432;SDS011;41331;45.412;10.992;2023-06-14T03:53:52;15.45;;;5.55;;
23432;SDS011;41331;45.412;10.992;2023-06-14T03:56:26;10.57;;;4.75;;
23432;SDS011;41331;45.412;10.992;2023-06-14T03:58:57;9.27;;;5.15;;
23432;SDS011;41331;45.412;10.992;2023-06-14T04:01:28;11.68;;;5.05;;
23432;SDS011;41331;45.412;10.992;2023-06-14T04:03:59;10.65;;;4.97;;
23432;SDS011;41331;45.412;10.992;2023-06-14T04:06:28;8.48;;;5.03;;
23432;SDS011;41331;45.412;10.992;2023-06-14T04:09:00;8.70;;;5.23;;
23432;SDS011;41331;45.412;10.992;2023-06-14T04:11:31;9.60;;;5.10;;
23432;SDS011;41331;45.412;10.992;2023-06-14T04:13:59;6.55;;;4.95;;
23432;SDS011;41331;45.412;10.992;2023-06-14T04:16:26;8.13;;;4.55;;
23432;SDS011;41331;45.412;10.992;2023-06-14T04:18:54;7.47;;;4.57;;
23432;SDS011;41331;45.412;10.992;2023-06-14T04:21:22;8.18;;;4.80;;
23432;SDS011;41331;45.412;10.992;2023-06-14T04:23:52;8.30;;;4.80;;
23432;SDS011;41331;45.412;10.992;2023-06-14T04:26:25;7.07;;;4.60;;
23432;SDS011;41331;45.412;10.992;2023-06-14T04:31:31;9.75;;;4.65;;
23432;SDS011;41331;45.412;10.992;2023-06-14T04:34:02;7.53;;;4.47;;
23432;SDS011;41331;45.412;10.992;2023-06-14T04:36:33;5.93;;;4.28;;
23432;SDS011;41331;45.412;10.992;2023-06-14T04:39:04;7.88;;;4.53;;
23432;SDS011;41331;45.412;10.992;2023-06-14T04:41:31;7.05;;;4.72;;
23432;SDS011;41331;45.412;10.992;2023-06-14T04:44:00;7.07;;;4.60;;
23432;SDS011;41331;45.412;10.992;2023-06-14T04:46:36;6.85;;;4.35;;
23432;SDS011;41331;45.412;10.992;2023-06-14T04:49:17;7.82;;;4.20;;
23432;SDS011;41331;45.412;10.992;2023-06-14T04:51:45;6.53;;;4.38;;
23432;SDS011;41331;45.412;10.992;2023-06-14T04:54:14;6.65;;;4.45;;
23432;SDS011;41331;45.412;10.992;2023-06-14T04:56:42;6.18;;;3.95;;
23432;SDS011;41331;45.412;10.992;2023-06-14T04:59:11;7.55;;;4.75;;
23432;SDS011;41331;45.412;10.992;2023-06-14T05:01:40;9.85;;;4.88;;
23432;SDS011;41331;45.412;10.992;2023-06-14T05:04:08;7.63;;;4.75;;
23432;SDS011;41331;45.412;10.992;2023-06-14T05:06:35;6.00;;;4.53;;
23432;SDS011;41331;45.412;10.992;2023-06-14T05:09:03;7.70;;;4.55;;
23432;SDS011;41331;45.412;10.992;2023-06-14T05:11:31;7.53;;;4.95;;
23432;SDS011;41331;45.412;10.992;2023-06-14T05:13:59;7.13;;;4.65;;
23432;SDS011;41331;45.412;10.992;2023-06-14T05:16:26;8.80;;;4.28;;
23432;SDS011;41331;45.412;10.992;2023-06-14T05:18:54;8.90;;;5.22;;
23432;SDS011;41331;45.412;10.992;2023-06-14T05:21:22;10.95;;;5.40;;
23432;SDS011;41331;45.412;10.992;2023-06-14T05:23:49;6.05;;;4.50;;
23432;SDS011;41331;45.412;10.992;2023-06-14T05:26:18;10.93;;;5.00;;
23432;SDS011;41331;45.412;10.992;2023-06-14T05:28:46;7.78;;;4.30;;
23432;SDS011;41331;45.412;10.992;2023-06-14T05:31:13;6.05;;;4.32;;
23432;SDS011;41331;45.412;10.992;2023-06-14T05:33:41;8.75;;;4.03;;
23432;SDS011;41331;45.412;10.992;2023-06-14T05:36:08;9.25;;;4.55;;
23432;SDS011;41331;45.412;10.992;2023-06-14T05:38:35;9.38;;;4.68;;
23432;SDS011;41331;45.412;10.992;2023-06-14T05:41:03;7.75;;;4.88;;
23432;SDS011;41331;45.412;10.992;2023-06-14T05:43:30;7.60;;;4.93;;
23432;SDS011;41331;45.412;10.992;2023-06-14T05:45:58;9.52;;;5.10;;
23432;SDS011;41331;45.412;10.992;2023-06-14T05:48:26;8.23;;;5.20;;
23432;SDS011;41331;45.412;10.992;2023-06-14T05:50:53;9.57;;;5.38;;
23432;SDS011;41331;45.412;10.992;2023-06-14T05:53:21;8.43;;;5.35;;
23432;SDS011;41331;45.412;10.992;2023-06-14T05:55:49;9.48;;;5.80;;
23432;SDS011;41331;45.412;10.992;2023-06-14T05:58:18;8.65;;;5.25;;
23432;SDS011;41331;45.412;10.992;2023-06-14T06:00:46;9.10;;;5.10;;
23432;SDS011;41331;45.412;10.992;2023-06-14T06:03:13;8.88;;;5.18;;
23432;SDS011;41331;45.412;10.992;2023-06-14T06:05:41;9.00;;;5.07;;
23432;SDS011;41331;45.412;10.992;2023-06-14T06:08:08;7.30;;;4.75;;
23432;SDS011;41331;45.412;10.992;2023-06-14T06:10:36;9.98;;;4.78;;
23432;SDS011;41331;45.412;10.992;2023-06-14T06:13:03;10.32;;;4.93;;
23432;SDS011;41331;45.412;10.992;2023-06-14T06:15:30;9.27;;;4.57;;
23432;SDS011;41331;45.412;10.992;2023-06-14T06:17:58;9.77;;;5.00;;
23432;SDS011;41331;45.412;10.992;2023-06-14T06:20:25;8.40;;;4.78;;
23432;SDS011;41331;45.412;10.992;2023-06-14T06:22:57;11.73;;;5.15;;
23432;SDS011;41331;45.412;10.992;2023-06-14T06:25:26;8.88;;;5.53;;
23432;SDS011;41331;45.412;10.992;2023-06-14T06:27:54;9.80;;;5.15;;
23432;SDS011;41331;45.412;10.992;2023-06-14T06:30:25;7.75;;;4.85;;
23432;SDS011;41331;45.412;10.992;2023-06-14T06:32:53;8.30;;;5.00;;
23432;SDS011;41331;45.412;10.992;2023-06-14T06:35:20;6.45;;;4.82;;
23432;SDS011;41331;45.412;10.992;2023-06-14T06:37:48;9.25;;;4.97;;
23432;SDS011;41331;45.412;10.992;2023-06-14T06:40:15;8.82;;;4.90;;
23432;SDS011;41331;45.412;10.992;2023-06-14T06:42:43;14.48;;;5.45;;
23432;SDS011;41331;45.412;10.992;2023-06-14T06:45:12;9.23;;;5.00;;
23432;SDS011;41331;45.412;10.992;2023-06-14T06:47:40;9.05;;;4.93;;
23432;SDS011;41331;45.412;10.992;2023-06-14T06:50:08;9.27;;;5.10;;
23432;SDS011;41331;45.412;10.992;2023-06-14T06:52:35;9.73;;;5.15;;
23432;SDS011;41331;45.412;10.992;2023-06-14T06:55:03;9.60;;;5.10;;
23432;SDS011;41331;45.412;10.992;2023-06-14T06:57:31;9.35;;;5.00;;
23432;SDS011;41331;45.412;10.992;2023-06-14T06:59:59;6.80;;;4.78;;
23432;SDS011;41331;45.412;10.992;2023-06-14T07:02:26;8.40;;;5.10;;
23432;SDS011;41331;45.412;10.992;2023-06-14T07:04:54;8.50;;;5.05;;
23432;SDS011;41331;45.412;10.992;2023-06-14T07:07:21;10.73;;;5.57;;
23432;SDS011;41331;45.412;10.992;2023-06-14T07:09:49;7.15;;;5.32;;
23432;SDS011;41331;45.412;10.992;2023-06-14T07:12:16;11.30;;;6.32;;
23432;SDS011;41331;45.412;10.992;2023-06-14T07:14:43;9.75;;;5.88;;
23432;SDS011;41331;45.412;10.992;2023-06-14T07:17:11;15.60;;;6.00;;
23432;SDS011;41331;45.412;10.992;2023-06-14T07:19:38;11.30;;;6.40;;
23432;SDS011;41331;45.412;10.992;2023-06-14T07:22:08;9.15;;;6.05;;
23432;SDS011;41331;45.412;10.992;2023-06-14T07:24:35;10.23;;;6.10;;
23432;SDS011;41331;45.412;10.992;2023-06-14T07:27:03;9.45;;;5.85;;
23432;SDS011;41331;45.412;10.992;2023-06-14T07:29:31;8.82;;;5.50;;
23432;SDS011;41331;45.412;10.992;2023-06-14T07:31:58;11.40;;;4.93;;
23432;SDS011;41331;45.412;10.992;2023-06-14T07:34:26;13.65;;;5.15;;
23432;SDS011;41331;45.412;10.992;2023-06-14T07:36:54;8.75;;;4.90;;
23432;SDS011;41331;45.412;10.992;2023-06-14T07:39:21;11.98;;;7.57;;
23432;SDS011;41331;45.412;10.992;2023-06-14T07:41:49;12.55;;;6.47;;
23432;SDS011;41331;45.412;10.992;2023-06-14T07:44:16;7.90;;;5.20;;
23432;SDS011;41331;45.412;10.992;2023-06-14T07:46:44;10.60;;;6.03;;
23432;SDS011;41331;45.412;10.992;2023-06-14T07:49:13;9.75;;;5.30;;
23432;SDS011;41331;45.412;10.992;2023-06-14T07:51:40;13.40;;;5.05;;
23432;SDS011;41331;45.412;10.992;2023-06-14T07:54:08;14.10;;;4.82;;
23432;SDS011;41331;45.412;10.992;2023-06-14T07:56:36;8.43;;;5.40;;
23432;SDS011;41331;45.412;10.992;2023-06-14T07:59:03;10.13;;;4.80;;
23432;SDS011;41331;45.412;10.992;2023-06-14T08:01:31;11.13;;;5.03;;
23432;SDS011;41331;45.412;10.992;2023-06-14T08:03:58;11.70;;;5.22;;
23432;SDS011;41331;45.412;10.992;2023-06-14T08:06:26;10.32;;;5.43;;
23432;SDS011;41331;45.412;10.992;2023-06-14T08:08:54;9.30;;;5.38;;
23432;SDS011;41331;45.412;10.992;2023-06-14T08:11:21;9.00;;;4.93;;
23432;SDS011;41331;45.412;10.992;2023-06-14T08:13:51;9.48;;;5.05;;
23432;SDS011;41331;45.412;10.992;2023-06-14T08:16:18;8.07;;;5.03;;
23432;SDS011;41331;45.412;10.992;2023-06-14T08:18:46;8.77;;;4.72;;
23432;SDS011;41331;45.412;10.992;2023-06-14T08:21:13;10.70;;;5.38;;
23432;SDS011;41331;45.412;10.992;2023-06-14T08:23:41;28.40;;;14.68;;
23432;SDS011;41331;45.412;10.992;2023-06-14T08:26:10;9.20;;;5.55;;
23432;SDS011;41331;45.412;10.992;2023-06-14T08:28:37;10.63;;;4.80;;
23432;SDS011;41331;45.412;10.992;2023-06-14T08:31:05;7.68;;;4.53;;
23432;SDS011;41331;45.412;10.992;2023-06-14T08:33:32;8.93;;;4.53;;
23432;SDS011;41331;45.412;10.992;2023-06-14T08:36:01;7.00;;;4.45;;
23432;SDS011;41331;45.412;10.992;2023-06-14T08:38:28;7.30;;;4.38;;
23432;SDS011;41331;45.412;10.992;2023-06-14T08:40:57;7.57;;;4.38;;
23432;SDS011;41331;45.412;10.992;2023-06-14T08:43:26;9.60;;;3.55;;
23432;SDS011;41331;45.412;10.992;2023-06-14T08:45:53;6.40;;;3.55;;
23432;SDS011;41331;45.412;10.992;2023-06-14T08:48:26;6.70;;;3.70;;
23432;SDS011;41331;45.412;10.992;2023-06-14T08:50:56;5.60;;;3.63;;
23432;SDS011;41331;45.412;10.992;2023-06-14T08:53:32;7.60;;;3.25;;
23432;SDS011;41331;45.412;10.992;2023-06-14T08:56:04;6.68;;;3.20;;
23432;SDS011;41331;45.412;10.992;2023-06-14T08:58:32;5.60;;;3.28;;
23432;SDS011;41331;45.412;10.992;2023-06-14T09:01:01;7.10;;;3.97;;
23432;SDS011;41331;45.412;10.992;2023-06-14T09:03:29;32.67;;;14.73;;
23432;SDS011;41331;45.412;10.992;2023-06-14T09:05:58;11.95;;;5.97;;
23432;SDS011;41331;45.412;10.992;2023-06-14T09:08:28;10.65;;;6.10;;
23432;SDS011;41331;45.412;10.992;2023-06-14T09:10:57;8.77;;;4.10;;
23432;SDS011;41331;45.412;10.992;2023-06-14T09:13:26;8.32;;;4.30;;
23432;SDS011;41331;45.412;10.992;2023-06-14T09:15:57;9.48;;;3.90;;
23432;SDS011;41331;45.412;10.992;2023-06-14T09:18:37;6.35;;;3.65;;
23432;SDS011;41331;45.412;10.992;2023-06-14T09:21:06;9.70;;;4.80;;
23432;SDS011;41331;45.412;10.992;2023-06-14T09:23:38;9.63;;;4.63;;
23432;SDS011;41331;45.412;10.992;2023-06-14T09:26:16;7.45;;;3.88;;
23432;SDS011;41331;45.412;10.992;2023-06-14T09:28:47;27.83;;;17.42;;
23432;SDS011;41331;45.412;10.992;2023-06-14T09:31:17;13.52;;;7.75;;
23432;SDS011;41331;45.412;10.992;2023-06-14T09:33:47;7.75;;;4.32;;
23432;SDS011;41331;45.412;10.992;2023-06-14T09:36:21;9.95;;;4.40;;
23432;SDS011;41331;45.412;10.992;2023-06-14T09:38:55;8.88;;;4.20;;
23432;SDS011;41331;45.412;10.992;2023-06-14T09:41:34;5.47;;;3.85;;
23432;SDS011;41331;45.412;10.992;2023-06-14T09:44:06;8.48;;;5.43;;
23432;SDS011;41331;45.412;10.992;2023-06-14T09:46:37;6.57;;;3.65;;
23432;SDS011;41331;45.412;10.992;2023-06-14T09:49:05;14.52;;;3.85;;
23432;SDS011;41331;45.412;10.992;2023-06-14T09:51:33;7.55;;;4.07;;
23432;SDS011;41331;45.412;10.992;2023-06-14T09:54:03;26.65;;;18.45;;
23432;SDS011;41331;45.412;10.992;2023-06-14T09:56:36;6.10;;;4.13;;
23432;SDS011;41331;45.412;10.992;2023-06-14T09:59:05;7.47;;;3.60;;
23432;SDS011;41331;45.412;10.992;2023-06-14T10:01:35;11.88;;;4.07;;
23432;SDS011;41331;45.412;10.992;2023-06-14T10:04:06;8.98;;;3.75;;
23432;SDS011;41331;45.412;10.992;2023-06-14T10:06:41;7.82;;;3.92;;
23432;SDS011;41331;45.412;10.992;2023-06-14T10:09:12;6.90;;;3.67;;
23432;SDS011;41331;45.412;10.992;2023-06-14T10:11:41;6.65;;;3.72;;
23432;SDS011;41331;45.412;10.992;2023-06-14T10:14:12;9.25;;;3.67;;
23432;SDS011;41331;45.412;10.992;2023-06-14T10:16:52;5.35;;;3.75;;
23432;SDS011;41331;45.412;10.992;2023-06-14T10:19:33;6.03;;;3.45;;
23432;SDS011;41331;45.412;10.992;2023-06-14T10:22:06;6.30;;;3.25;;
23432;SDS011;41331;45.412;10.992;2023-06-14T10:24:39;5.45;;;3.58;;
23432;SDS011;41331;45.412;10.992;2023-06-14T10:27:09;5.13;;;3.22;;
23432;SDS011;41331;45.412;10.992;2023-06-14T10:32:25;6.55;;;3.00;;
23432;SDS011;41331;45.412;10.992;2023-06-14T10:34:56;8.88;;;3.10;;
23432;SDS011;41331;45.412;10.992;2023-06-14T10:37:25;6.72;;;3.17;;
23432;SDS011;41331;45.412;10.992;2023-06-14T10:39:52;6.65;;;2.63;;
23432;SDS011;41331;45.412;10.992;2023-06-14T10:42:23;8.43;;;2.88;;
23432;SDS011;41331;45.412;10.992;2023-06-14T10:44:58;6.97;;;3.03;;
23432;SDS011;41331;45.412;10.992;2023-06-14T10:47:29;6.95;;;3.05;;
23432;SDS011;41331;45.412;10.992;2023-06-14T10:52:29;7.13;;;3.40;;
23432;SDS011;41331;45.412;10.992;2023-06-14T10:55:04;3.97;;;2.53;;
23432;SDS011;41331;45.412;10.992;2023-06-14T10:57:52;4.68;;;2.78;;
23432;SDS011;41331;45.412;10.992;2023-06-14T11:00:27;4.45;;;2.30;;
23432;SDS011;41331;45.412;10.992;2023-06-14T11:05:50;8.63;;;3.22;;
23432;SDS011;41331;45.412;10.992;2023-06-14T11:11:09;3.63;;;2.60;;
23432;SDS011;41331;45.412;10.992;2023-06-14T11:13:38;4.75;;;2.90;;
23432;SDS011;41331;45.412;10.992;2023-06-14T11:16:13;4.60;;;2.78;;
23432;SDS011;41331;45.412;10.992;2023-06-14T11:18:42;6.32;;;2.85;;
23432;SDS011;41331;45.412;10.992;2023-06-14T11:21:15;4.10;;;2.63;;
23432;SDS011;41331;45.412;10.992;2023-06-14T11:23:48;6.82;;;2.97;;
23432;SDS011;41331;45.412;10.992;2023-06-14T11:26:29;4.55;;;2.95;;
23432;SDS011;41331;45.412;10.992;2023-06-14T11:28:58;6.80;;;2.88;;
23432;SDS011;41331;45.412;10.992;2023-06-14T11:31:27;3.90;;;2.28;;
23432;SDS011;41331;45.412;10.992;2023-06-14T11:33:56;4.57;;;2.55;;
23432;SDS011;41331;45.412;10.992;2023-06-14T11:36:28;5.82;;;3.08;;
23432;SDS011;41331;45.412;10.992;2023-06-14T11:39:06;9.40;;;3.55;;
23432;SDS011;41331;45.412;10.992;2023-06-14T11:41:41;10.25;;;3.78;;
23432;SDS011;41331;45.412;10.992;2023-06-14T11:44:10;21.23;;;4.70;;
23432;SDS011;41331;45.412;10.992;2023-06-14T11:46:39;8.07;;;3.05;;
23432;SDS011;41331;45.412;10.992;2023-06-14T11:49:07;9.45;;;3.30;;
23432;SDS011;41331;45.412;10.992;2023-06-14T11:51:36;5.78;;;2.63;;
23432;SDS011;41331;45.412;10.992;2023-06-14T11:54:04;5.03;;;2.83;;
23432;SDS011;41331;45.412;10.992;2023-06-14T11:56:34;5.88;;;3.17;;
23432;SDS011;41331;45.412;10.992;2023-06-14T11:59:02;4.97;;;2.90;;
23432;SDS011;41331;45.412;10.992;2023-06-14T12:01:35;4.35;;;2.88;;
23432;SDS011;41331;45.412;10.992;2023-06-14T12:04:06;4.50;;;3.00;;
23432;SDS011;41331;45.412;10.992;2023-06-14T12:06:33;7.13;;;3.05;;
23432;SDS011;41331;45.412;10.992;2023-06-14T12:09:04;5.15;;;3.25;;
23432;SDS011;41331;45.412;10.992;2023-06-14T12:11:35;6.30;;;3.73;;
23432;SDS011;41331;45.412;10.992;2023-06-14T12:14:04;5.32;;;3.35;;
23432;SDS011;41331;45.412;10.992;2023-06-14T12:16:33;6.53;;;3.13;;
23432;SDS011;41331;45.412;10.992;2023-06-14T12:19:14;7.03;;;3.10;;
23432;SDS011;41331;45.412;10.992;2023-06-14T12:21:45;5.75;;;3.13;;
23432;SDS011;41331;45.412;10.992;2023-06-14T12:24:16;6.60;;;3.03;;
23432;SDS011;41331;45.412;10.992;2023-06-14T12:26:44;5.20;;;3.53;;
23432;SDS011;41331;45.412;10.992;2023-06-14T12:29:12;12.13;;;3.67;;
23432;SDS011;41331;45.412;10.992;2023-06-14T12:31:40;7.30;;;3.63;;
23432;SDS011;41331;45.412;10.992;2023-06-14T12:34:08;8.48;;;3.38;;
23432;SDS011;41331;45.412;10.992;2023-06-14T12:36:37;6.65;;;3.38;;
23432;SDS011;41331;45.412;10.992;2023-06-14T12:39:09;5.68;;;3.90;;
23432;SDS011;41331;45.412;10.992;2023-06-14T12:41:36;6.78;;;3.65;;
23432;SDS011;41331;45.412;10.992;2023-06-14T12:44:04;4.82;;;3.40;;
23432;SDS011;41331;45.412;10.992;2023-06-14T12:46:31;6.70;;;3.83;;
23432;SDS011;41331;45.412;10.992;2023-06-14T12:48:59;11.98;;;3.50;;
23432;SDS011;41331;45.412;10.992;2023-06-14T12:51:27;10.88;;;3.28;;
23432;SDS011;41331;45.412;10.992;2023-06-14T12:53:54;6.30;;;3.80;;
23432;SDS011;41331;45.412;10.992;2023-06-14T12:56:22;5.85;;;3.45;;
23432;SDS011;41331;45.412;10.992;2023-06-14T12:58:51;9.55;;;7.03;;
23432;SDS011;41331;45.412;10.992;2023-06-14T13:01:19;8.73;;;4.55;;
23432;SDS011;41331;45.412;10.992;2023-06-14T13:03:47;14.13;;;9.35;;
23432;SDS011;41331;45.412;10.992;2023-06-14T13:06:15;8.35;;;4.78;;
23432;SDS011;41331;45.412;10.992;2023-06-14T13:08:42;6.88;;;3.60;;
23432;SDS011;41331;45.412;10.992;2023-06-14T13:11:10;6.72;;;3.67;;
23432;SDS011;41331;45.412;10.992;2023-06-14T13:13:38;7.18;;;3.42;;
23432;SDS011;41331;45.412;10.992;2023-06-14T13:16:05;4.97;;;3.40;;
23432;SDS011;41331;45.412;10.992;2023-06-14T13:18:33;7.40;;;3.03;;
23432;SDS011;41331;45.412;10.992;2023-06-14T13:21:01;5.30;;;3.38;;
23432;SDS011;41331;45.412;10.992;2023-06-14T13:23:28;5.15;;;3.13;;
23432;SDS011;41331;45.412;10.992;2023-06-14T13:25:56;7.90;;;3.20;;
23432;SDS011;41331;45.412;10.992;2023-06-14T13:28:23;6.55;;;3.42;;
23432;SDS011;41331;45.412;10.992;2023-06-14T13:30:50;5.72;;;3.30;;
23432;SDS011;41331;45.412;10.992;2023-06-14T13:33:18;6.60;;;3.10;;
23432;SDS011;41331;45.412;10.992;2023-06-14T13:35:45;6.25;;;3.72;;
23432;SDS011;41331;45.412;10.992;2023-06-14T13:38:13;10.50;;;3.30;;
23432;SDS011;41331;45.412;10.992;2023-06-14T13:40:41;7.88;;;3.17;;
23432;SDS011;41331;45.412;10.992;2023-06-14T13:43:09;15.27;;;3.55;;
23432;SDS011;41331;45.412;10.992;2023-06-14T13:45:37;7.97;;;3.60;;
23432;SDS011;41331;45.412;10.992;2023-06-14T13:48:04;6.53;;;3.35;;
23432;SDS011;41331;45.412;10.992;2023-06-14T13:50:32;5.70;;;3.28;;
23432;SDS011;41331;45.412;10.992;2023-06-14T13:53:00;7.43;;;2.90;;
23432;SDS011;41331;45.412;10.992;2023-06-14T13:55:27;6.00;;;3.08;;
23432;SDS011;41331;45.412;10.992;2023-06-14T13:57:55;6.22;;;3.20;;
23432;SDS011;41331;45.412;10.992;2023-06-14T14:00:23;4.88;;;3.20;;
23432;SDS011;41331;45.412;10.992;2023-06-14T14:02:51;6.38;;;3.47;;
23432;SDS011;41331;45.412;10.992;2023-06-14T14:05:19;4.65;;;3.45;;
23432;SDS011;41331;45.412;10.992;2023-06-14T14:07:48;8.30;;;3.25;;
23432;SDS011;41331;45.412;10.992;2023-06-14T14:10:16;5.15;;;3.22;;
23432;SDS011;41331;45.412;10.992;2023-06-14T14:12:43;7.38;;;2.88;;
23432;SDS011;41331;45.412;10.992;2023-06-14T14:17:43;7.30;;;3.00;;
23432;SDS011;41331;45.412;10.992;2023-06-14T14:20:10;5.45;;;3.00;;
23432;SDS011;41331;45.412;10.992;2023-06-14T14:22:43;10.85;;;3.83;;
23432;SDS011;41331;45.412;10.992;2023-06-14T14:25:10;5.88;;;3.22;;
23432;SDS011;41331;45.412;10.992;2023-06-14T14:27:38;5.53;;;2.97;;
23432;SDS011;41331;45.412;10.992;2023-06-14T14:30:06;6.72;;;3.42;;
23432;SDS011;41331;45.412;10.992;2023-06-14T14:32:34;9.73;;;3.22;;
23432;SDS011;41331;45.412;10.992;2023-06-14T14:35:01;5.65;;;2.97;;
23432;SDS011;41331;45.412;10.992;2023-06-14T14:37:28;4.78;;;2.80;;
23432;SDS011;41331;45.412;10.992;2023-06-14T14:39:56;6.13;;;2.88;;
23432;SDS011;41331;45.412;10.992;2023-06-14T14:42:41;5.20;;;2.80;;
23432;SDS011;41331;45.412;10.992;2023-06-14T14:45:08;8.10;;;3.20;;
23432;SDS011;41331;45.412;10.992;2023-06-14T14:47:36;5.47;;;2.90;;
23432;SDS011;41331;45.412;10.992;2023-06-14T14:50:04;6.53;;;3.13;;
23432;SDS011;41331;45.412;10.992;2023-06-14T14:55:03;5.47;;;3.28;;
23432;SDS011;41331;45.412;10.992;2023-06-14T14:57:30;9.68;;;3.38;;
23432;SDS011;41331;45.412;10.992;2023-06-14T14:59:58;8.20;;;3.20;;
23432;SDS011;41331;45.412;10.992;2023-06-14T15:02:26;6.32;;;3.53;;